sensor_id;sensor_type;location;lat;lon;timestamp;P1;durP1;ratioP1;P2;durP2;ratioP2
49730;SDS011;35622;52.008;5.426;2024-02-21T00:01:38;11.77;;;5.32;;
49730;SDS011;35622;52.008;5.426;2024-02-21T00:04:04;13.65;;;5.78;;
49730;SDS011;35622;52.008;5.426;2024-02-21T00:06:30;11.80;;;5.15;;
49730;SDS011;35622;52.008;5.426;2024-02-21T00:08:56;11.82;;;5.07;;
49730;SDS011;35622;52.008;5.426;2024-02-21T00:11:22;11.55;;;5.22;;
49730;SDS011;35622;52.008;5.426;2024-02-21T00:13:47;12.13;;;5.30;;
49730;SDS011;35622;52.008;5.426;2024-02-21T00:16:13;10.80;;;5.45;;
49730;SDS011;35622;52.008;5.426;2024-02-21T00:18:40;12.88;;;5.15;;
49730;SDS011;35622;52.008;5.426;2024-02-21T00:21:06;12.95;;;5.15;;
49730;SDS011;35622;52.008;5.426;2024-02-21T00:23:32;11.13;;;5.03;;
49730;SDS011;35622;52.008;5.426;2024-02-21T00:25:57;9.02;;;4.68;;
49730;SDS011;35622;52.008;5.426;2024-02-21T00:28:23;13.27;;;4.90;;
49730;SDS011;35622;52.008;5.426;2024-02-21T00:30:49;12.75;;;4.72;;
49730;SDS011;35622;52.008;5.426;2024-02-21T00:33:16;13.57;;;5.85;;
49730;SDS011;35622;52.008;5.426;2024-02-21T00:35:42;13.10;;;5.28;;
49730;SDS011;35622;52.008;5.426;2024-02-21T00:38:08;8.18;;;4.20;;
49730;SDS011;35622;52.008;5.426;2024-02-21T00:40:33;15.63;;;5.22;;
49730;SDS011;35622;52.008;5.426;2024-02-21T00:43:00;11.63;;;4.95;;
49730;SDS011;35622;52.008;5.426;2024-02-21T00:45:25;15.68;;;5.30;;
49730;SDS011;35622;52.008;5.426;2024-02-21T00:47:51;12.52;;;5.15;;
49730;SDS011;35622;52.008;5.426;2024-02-21T00:50:17;15.48;;;5.70;;
49730;SDS011;35622;52.008;5.426;2024-02-21T00:52:42;10.73;;;4.93;;
49730;SDS011;35622;52.008;5.426;2024-02-21T00:55:08;10.57;;;4.63;;
49730;SDS011;35622;52.008;5.426;2024-02-21T00:57:34;12.43;;;5.65;;
49730;SDS011;35622;52.008;5.426;2024-02-21T01:00:00;9.48;;;5.88;;
49730;SDS011;35622;52.008;5.426;2024-02-21T01:02:26;15.45;;;5.65;;
49730;SDS011;35622;52.008;5.426;2024-02-21T01:04:52;11.65;;;5.32;;
49730;SDS011;35622;52.008;5.426;2024-02-21T01:07:18;10.75;;;4.85;;
49730;SDS011;35622;52.008;5.426;2024-02-21T01:09:43;9.98;;;4.90;;
49730;SDS011;35622;52.008;5.426;2024-02-21T01:12:09;8.00;;;4.95;;
49730;SDS011;35622;52.008;5.426;2024-02-21T01:14:34;12.13;;;5.85;;
49730;SDS011;35622;52.008;5.426;2024-02-21T01:17:00;15.27;;;5.05;;
49730;SDS011;35622;52.008;5.426;2024-02-21T01:19:26;9.98;;;5.57;;
49730;SDS011;35622;52.008;5.426;2024-02-21T01:21:52;13.35;;;4.63;;
49730;SDS011;35622;52.008;5.426;2024-02-21T01:24:17;10.50;;;4.40;;
49730;SDS011;35622;52.008;5.426;2024-02-21T01:26:43;13.27;;;6.28;;
49730;SDS011;35622;52.008;5.426;2024-02-21T01:29:08;12.80;;;5.10;;
49730;SDS011;35622;52.008;5.426;2024-02-21T01:31:34;12.05;;;5.35;;
49730;SDS011;35622;52.008;5.426;2024-02-21T01:33:59;12.75;;;4.95;;
49730;SDS011;35622;52.008;5.426;2024-02-21T01:36:25;13.07;;;5.32;;
49730;SDS011;35622;52.008;5.426;2024-02-21T01:38:51;13.07;;;5.20;;
49730;SDS011;35622;52.008;5.426;2024-02-21T01:41:16;11.25;;;4.53;;
49730;SDS011;35622;52.008;5.426;2024-02-21T01:43:42;12.23;;;5.13;;
49730;SDS011;35622;52.008;5.426;2024-02-21T01:46:07;11.05;;;5.43;;
49730;SDS011;35622;52.008;5.426;2024-02-21T01:48:33;13.80;;;5.65;;
49730;SDS011;35622;52.008;5.426;2024-02-21T01:50:59;12.63;;;4.88;;
49730;SDS011;35622;52.008;5.426;2024-02-21T01:53:30;10.75;;;5.25;;
49730;SDS011;35622;52.008;5.426;2024-02-21T01:55:59;11.15;;;5.20;;
49730;SDS011;35622;52.008;5.426;2024-02-21T01:58:26;10.48;;;4.90;;
49730;SDS011;35622;52.008;5.426;2024-02-21T02:00:53;11.23;;;5.20;;
49730;SDS011;35622;52.008;5.426;2024-02-21T02:03:22;10.82;;;4.70;;
49730;SDS011;35622;52.008;5.426;2024-02-21T02:05:48;11.45;;;4.75;;
49730;SDS011;35622;52.008;5.426;2024-02-21T02:08:23;10.82;;;5.63;;
49730;SDS011;35622;52.008;5.426;2024-02-21T02:10:49;19.38;;;6.20;;
49730;SDS011;35622;52.008;5.426;2024-02-21T02:13:15;11.55;;;5.00;;
49730;SDS011;35622;52.008;5.426;2024-02-21T02:15:44;13.57;;;4.63;;
49730;SDS011;35622;52.008;5.426;2024-02-21T02:18:11;13.77;;;4.55;;
49730;SDS011;35622;52.008;5.426;2024-02-21T02:20:38;12.07;;;5.22;;
49730;SDS011;35622;52.008;5.426;2024-02-21T02:23:11;12.02;;;4.72;;
49730;SDS011;35622;52.008;5.426;2024-02-21T02:25:53;14.35;;;4.95;;
49730;SDS011;35622;52.008;5.426;2024-02-21T02:28:19;11.88;;;4.90;;
49730;SDS011;35622;52.008;5.426;2024-02-21T02:30:45;11.45;;;4.68;;
49730;SDS011;35622;52.008;5.426;2024-02-21T02:33:11;12.35;;;5.00;;
49730;SDS011;35622;52.008;5.426;2024-02-21T02:35:37;13.68;;;5.10;;
49730;SDS011;35622;52.008;5.426;2024-02-21T02:38:03;13.75;;;5.88;;
49730;SDS011;35622;52.008;5.426;2024-02-21T02:40:29;17.20;;;5.20;;
49730;SDS011;35622;52.008;5.426;2024-02-21T02:42:55;13.05;;;5.68;;
49730;SDS011;35622;52.008;5.426;2024-02-21T02:45:22;8.70;;;4.63;;
49730;SDS011;35622;52.008;5.426;2024-02-21T02:47:49;12.75;;;5.22;;
49730;SDS011;35622;52.008;5.426;2024-02-21T02:50:14;14.40;;;5.20;;
49730;SDS011;35622;52.008;5.426;2024-02-21T02:52:40;13.45;;;5.28;;
49730;SDS011;35622;52.008;5.426;2024-02-21T02:55:06;14.18;;;5.07;;
49730;SDS011;35622;52.008;5.426;2024-02-21T02:57:32;10.20;;;5.13;;
49730;SDS011;35622;52.008;5.426;2024-02-21T02:59:58;11.52;;;5.07;;
49730;SDS011;35622;52.008;5.426;2024-02-21T03:02:23;14.98;;;5.57;;
49730;SDS011;35622;52.008;5.426;2024-02-21T03:04:49;12.05;;;5.72;;
49730;SDS011;35622;52.008;5.426;2024-02-21T03:07:15;11.32;;;4.97;;
49730;SDS011;35622;52.008;5.426;2024-02-21T03:09:41;9.85;;;4.97;;
49730;SDS011;35622;52.008;5.426;2024-02-21T03:12:10;10.10;;;4.43;;
49730;SDS011;35622;52.008;5.426;2024-02-21T03:14:36;10.63;;;4.97;;
49730;SDS011;35622;52.008;5.426;2024-02-21T03:17:01;15.73;;;5.82;;
49730;SDS011;35622;52.008;5.426;2024-02-21T03:19:28;9.32;;;4.65;;
49730;SDS011;35622;52.008;5.426;2024-02-21T03:21:54;12.45;;;5.53;;
49730;SDS011;35622;52.008;5.426;2024-02-21T03:24:20;17.60;;;6.15;;
49730;SDS011;35622;52.008;5.426;2024-02-21T03:26:46;10.52;;;5.68;;
49730;SDS011;35622;52.008;5.426;2024-02-21T03:29:14;12.65;;;5.90;;
49730;SDS011;35622;52.008;5.426;2024-02-21T03:31:40;16.40;;;6.32;;
49730;SDS011;35622;52.008;5.426;2024-02-21T03:34:06;13.48;;;5.65;;
49730;SDS011;35622;52.008;5.426;2024-02-21T03:36:31;15.57;;;6.10;;
49730;SDS011;35622;52.008;5.426;2024-02-21T03:38:57;17.02;;;6.90;;
49730;SDS011;35622;52.008;5.426;2024-02-21T03:41:23;14.60;;;6.25;;
49730;SDS011;35622;52.008;5.426;2024-02-21T03:43:48;17.13;;;5.88;;
49730;SDS011;35622;52.008;5.426;2024-02-21T03:46:14;12.05;;;5.90;;
49730;SDS011;35622;52.008;5.426;2024-02-21T03:48:40;13.30;;;5.45;;
49730;SDS011;35622;52.008;5.426;2024-02-21T03:51:06;12.82;;;6.18;;
49730;SDS011;35622;52.008;5.426;2024-02-21T03:53:32;12.35;;;6.10;;
49730;SDS011;35622;52.008;5.426;2024-02-21T03:56:00;12.82;;;5.80;;
49730;SDS011;35622;52.008;5.426;2024-02-21T03:58:28;15.63;;;6.70;;
49730;SDS011;35622;52.008;5.426;2024-02-21T04:00:53;10.88;;;5.63;;
49730;SDS011;35622;52.008;5.426;2024-02-21T04:03:19;16.42;;;6.15;;
49730;SDS011;35622;52.008;5.426;2024-02-21T04:05:45;14.32;;;5.82;;
49730;SDS011;35622;52.008;5.426;2024-02-21T04:08:11;15.13;;;6.03;;
49730;SDS011;35622;52.008;5.426;2024-02-21T04:10:36;12.02;;;5.78;;
49730;SDS011;35622;52.008;5.426;2024-02-21T04:13:02;12.45;;;5.53;;
49730;SDS011;35622;52.008;5.426;2024-02-21T04:15:28;12.30;;;5.88;;
49730;SDS011;35622;52.008;5.426;2024-02-21T04:17:54;11.38;;;5.05;;
49730;SDS011;35622;52.008;5.426;2024-02-21T04:20:20;13.05;;;5.97;;
49730;SDS011;35622;52.008;5.426;2024-02-21T04:22:45;13.27;;;5.53;;
49730;SDS011;35622;52.008;5.426;2024-02-21T04:25:11;15.20;;;5.55;;
49730;SDS011;35622;52.008;5.426;2024-02-21T04:27:38;9.52;;;6.05;;
49730;SDS011;35622;52.008;5.426;2024-02-21T04:30:04;10.43;;;4.97;;
49730;SDS011;35622;52.008;5.426;2024-02-21T04:32:31;11.65;;;5.22;;
49730;SDS011;35622;52.008;5.426;2024-02-21T04:34:57;10.13;;;5.90;;
49730;SDS011;35622;52.008;5.426;2024-02-21T04:37:23;12.05;;;5.97;;
49730;SDS011;35622;52.008;5.426;2024-02-21T04:39:49;13.38;;;6.45;;
49730;SDS011;35622;52.008;5.426;2024-02-21T04:42:15;11.30;;;5.68;;
49730;SDS011;35622;52.008;5.426;2024-02-21T04:44:41;8.23;;;6.00;;
49730;SDS011;35622;52.008;5.426;2024-02-21T04:47:06;11.25;;;6.18;;
49730;SDS011;35622;52.008;5.426;2024-02-21T04:49:32;10.48;;;6.25;;
49730;SDS011;35622;52.008;5.426;2024-02-21T04:51:58;10.77;;;5.57;;
49730;SDS011;35622;52.008;5.426;2024-02-21T04:54:24;15.40;;;6.00;;
49730;SDS011;35622;52.008;5.426;2024-02-21T04:56:50;12.75;;;6.43;;
49730;SDS011;35622;52.008;5.426;2024-02-21T04:59:16;12.30;;;6.22;;
49730;SDS011;35622;52.008;5.426;2024-02-21T05:01:42;12.18;;;5.88;;
49730;SDS011;35622;52.008;5.426;2024-02-21T05:04:07;11.80;;;6.80;;
49730;SDS011;35622;52.008;5.426;2024-02-21T05:06:37;10.75;;;6.45;;
49730;SDS011;35622;52.008;5.426;2024-02-21T05:09:07;11.07;;;7.05;;
49730;SDS011;35622;52.008;5.426;2024-02-21T05:11:35;15.32;;;7.32;;
49730;SDS011;35622;52.008;5.426;2024-02-21T05:14:01;15.43;;;7.25;;
49730;SDS011;35622;52.008;5.426;2024-02-21T05:16:26;13.93;;;7.72;;
49730;SDS011;35622;52.008;5.426;2024-02-21T05:18:52;13.45;;;7.47;;
49730;SDS011;35622;52.008;5.426;2024-02-21T05:21:17;14.38;;;7.45;;
49730;SDS011;35622;52.008;5.426;2024-02-21T05:23:44;14.35;;;8.10;;
49730;SDS011;35622;52.008;5.426;2024-02-21T05:26:09;14.70;;;7.50;;
49730;SDS011;35622;52.008;5.426;2024-02-21T05:28:35;17.33;;;8.55;;
49730;SDS011;35622;52.008;5.426;2024-02-21T05:31:00;12.60;;;7.28;;
49730;SDS011;35622;52.008;5.426;2024-02-21T05:33:26;13.68;;;7.18;;
49730;SDS011;35622;52.008;5.426;2024-02-21T05:35:52;15.45;;;8.40;;
49730;SDS011;35622;52.008;5.426;2024-02-21T05:38:17;16.50;;;7.95;;
49730;SDS011;35622;52.008;5.426;2024-02-21T05:40:44;16.15;;;8.63;;
49730;SDS011;35622;52.008;5.426;2024-02-21T05:43:10;19.33;;;8.82;;
49730;SDS011;35622;52.008;5.426;2024-02-21T05:45:35;14.07;;;8.13;;
49730;SDS011;35622;52.008;5.426;2024-02-21T05:48:01;15.30;;;7.68;;
49730;SDS011;35622;52.008;5.426;2024-02-21T05:50:27;16.33;;;8.98;;
49730;SDS011;35622;52.008;5.426;2024-02-21T05:52:56;12.75;;;8.20;;
49730;SDS011;35622;52.008;5.426;2024-02-21T05:55:22;15.75;;;8.82;;
49730;SDS011;35622;52.008;5.426;2024-02-21T05:57:48;15.63;;;8.80;;
49730;SDS011;35622;52.008;5.426;2024-02-21T06:00:14;18.52;;;9.15;;
49730;SDS011;35622;52.008;5.426;2024-02-21T06:02:40;15.52;;;8.95;;
49730;SDS011;35622;52.008;5.426;2024-02-21T06:05:06;20.15;;;9.68;;
49730;SDS011;35622;52.008;5.426;2024-02-21T06:07:33;19.48;;;9.02;;
49730;SDS011;35622;52.008;5.426;2024-02-21T06:10:02;21.80;;;10.75;;
49730;SDS011;35622;52.008;5.426;2024-02-21T06:12:28;22.17;;;11.38;;
49730;SDS011;35622;52.008;5.426;2024-02-21T06:14:53;19.02;;;10.60;;
49730;SDS011;35622;52.008;5.426;2024-02-21T06:17:19;22.00;;;11.60;;
49730;SDS011;35622;52.008;5.426;2024-02-21T06:19:45;20.10;;;10.60;;
49730;SDS011;35622;52.008;5.426;2024-02-21T06:22:10;21.92;;;11.63;;
49730;SDS011;35622;52.008;5.426;2024-02-21T06:24:36;27.65;;;12.73;;
49730;SDS011;35622;52.008;5.426;2024-02-21T06:27:05;30.67;;;12.48;;
49730;SDS011;35622;52.008;5.426;2024-02-21T06:29:34;23.10;;;12.60;;
49730;SDS011;35622;52.008;5.426;2024-02-21T06:32:00;24.27;;;13.25;;
49730;SDS011;35622;52.008;5.426;2024-02-21T06:34:26;26.55;;;11.98;;
49730;SDS011;35622;52.008;5.426;2024-02-21T06:36:52;23.38;;;12.43;;
49730;SDS011;35622;52.008;5.426;2024-02-21T06:39:18;23.15;;;12.82;;
49730;SDS011;35622;52.008;5.426;2024-02-21T06:41:43;25.50;;;12.52;;
49730;SDS011;35622;52.008;5.426;2024-02-21T06:44:09;23.17;;;13.57;;
49730;SDS011;35622;52.008;5.426;2024-02-21T06:46:35;21.98;;;12.75;;
49730;SDS011;35622;52.008;5.426;2024-02-21T06:49:00;25.08;;;12.65;;
49730;SDS011;35622;52.008;5.426;2024-02-21T06:51:28;24.27;;;12.63;;
49730;SDS011;35622;52.008;5.426;2024-02-21T06:53:54;22.65;;;12.10;;
49730;SDS011;35622;52.008;5.426;2024-02-21T06:56:20;24.75;;;12.40;;
49730;SDS011;35622;52.008;5.426;2024-02-21T06:58:45;19.38;;;12.65;;
49730;SDS011;35622;52.008;5.426;2024-02-21T07:01:11;23.92;;;11.93;;
49730;SDS011;35622;52.008;5.426;2024-02-21T07:03:37;20.73;;;11.82;;
49730;SDS011;35622;52.008;5.426;2024-02-21T07:06:03;23.33;;;12.27;;
49730;SDS011;35622;52.008;5.426;2024-02-21T07:08:29;19.83;;;11.27;;
49730;SDS011;35622;52.008;5.426;2024-02-21T07:10:54;19.83;;;11.30;;
49730;SDS011;35622;52.008;5.426;2024-02-21T07:13:20;20.05;;;10.68;;
49730;SDS011;35622;52.008;5.426;2024-02-21T07:15:47;23.27;;;11.77;;
49730;SDS011;35622;52.008;5.426;2024-02-21T07:18:13;22.55;;;11.25;;
49730;SDS011;35622;52.008;5.426;2024-02-21T07:20:39;20.00;;;10.77;;
49730;SDS011;35622;52.008;5.426;2024-02-21T07:23:06;20.60;;;10.63;;
49730;SDS011;35622;52.008;5.426;2024-02-21T07:25:35;19.05;;;10.43;;
49730;SDS011;35622;52.008;5.426;2024-02-21T07:28:00;17.13;;;10.38;;
49730;SDS011;35622;52.008;5.426;2024-02-21T07:30:26;17.33;;;10.00;;
49730;SDS011;35622;52.008;5.426;2024-02-21T07:32:52;22.23;;;10.63;;
49730;SDS011;35622;52.008;5.426;2024-02-21T07:35:18;19.63;;;10.20;;
49730;SDS011;35622;52.008;5.426;2024-02-21T07:37:43;20.38;;;10.40;;
49730;SDS011;35622;52.008;5.426;2024-02-21T07:40:15;20.73;;;10.10;;
49730;SDS011;35622;52.008;5.426;2024-02-21T07:42:41;20.90;;;10.10;;
49730;SDS011;35622;52.008;5.426;2024-02-21T07:45:07;20.65;;;9.88;;
49730;SDS011;35622;52.008;5.426;2024-02-21T07:47:34;18.95;;;10.13;;
49730;SDS011;35622;52.008;5.426;2024-02-21T07:50:00;21.58;;;10.90;;
49730;SDS011;35622;52.008;5.426;2024-02-21T07:52:26;17.35;;;9.65;;
49730;SDS011;35622;52.008;5.426;2024-02-21T07:54:51;19.38;;;10.15;;
49730;SDS011;35622;52.008;5.426;2024-02-21T07:57:17;19.23;;;10.13;;
49730;SDS011;35622;52.008;5.426;2024-02-21T07:59:43;16.15;;;9.48;;
49730;SDS011;35622;52.008;5.426;2024-02-21T08:02:08;19.17;;;10.00;;
49730;SDS011;35622;52.008;5.426;2024-02-21T08:04:34;16.90;;;9.70;;
49730;SDS011;35622;52.008;5.426;2024-02-21T08:07:00;18.60;;;10.43;;
49730;SDS011;35622;52.008;5.426;2024-02-21T08:09:29;21.65;;;10.00;;
49730;SDS011;35622;52.008;5.426;2024-02-21T08:11:55;16.75;;;10.32;;
49730;SDS011;35622;52.008;5.426;2024-02-21T08:14:21;17.30;;;10.23;;
49730;SDS011;35622;52.008;5.426;2024-02-21T08:16:47;17.85;;;10.25;;
49730;SDS011;35622;52.008;5.426;2024-02-21T08:19:13;19.23;;;10.30;;
49730;SDS011;35622;52.008;5.426;2024-02-21T08:21:38;19.45;;;10.23;;
49730;SDS011;35622;52.008;5.426;2024-02-21T08:24:04;18.85;;;9.38;;
49730;SDS011;35622;52.008;5.426;2024-02-21T08:26:30;18.35;;;9.90;;
49730;SDS011;35622;52.008;5.426;2024-02-21T08:28:56;17.88;;;9.80;;
49730;SDS011;35622;52.008;5.426;2024-02-21T08:31:26;17.65;;;10.35;;
49730;SDS011;35622;52.008;5.426;2024-02-21T08:33:59;17.75;;;10.05;;
49730;SDS011;35622;52.008;5.426;2024-02-21T08:36:28;19.45;;;9.95;;
49730;SDS011;35622;52.008;5.426;2024-02-21T08:38:57;18.75;;;9.32;;
49730;SDS011;35622;52.008;5.426;2024-02-21T08:41:26;17.50;;;8.90;;
49730;SDS011;35622;52.008;5.426;2024-02-21T08:43:52;17.85;;;8.50;;
49730;SDS011;35622;52.008;5.426;2024-02-21T08:46:21;22.83;;;8.93;;
49730;SDS011;35622;52.008;5.426;2024-02-21T08:48:49;20.10;;;9.55;;
49730;SDS011;35622;52.008;5.426;2024-02-21T08:51:16;19.73;;;9.52;;
49730;SDS011;35622;52.008;5.426;2024-02-21T08:53:41;18.60;;;9.20;;
49730;SDS011;35622;52.008;5.426;2024-02-21T08:56:07;17.00;;;9.93;;
49730;SDS011;35622;52.008;5.426;2024-02-21T08:58:33;17.40;;;8.98;;
49730;SDS011;35622;52.008;5.426;2024-02-21T09:01:00;16.02;;;8.68;;
49730;SDS011;35622;52.008;5.426;2024-02-21T09:03:26;15.18;;;8.40;;
49730;SDS011;35622;52.008;5.426;2024-02-21T09:05:52;17.92;;;8.95;;
49730;SDS011;35622;52.008;5.426;2024-02-21T09:08:18;15.15;;;9.00;;
49730;SDS011;35622;52.008;5.426;2024-02-21T09:10:44;16.80;;;8.43;;
49730;SDS011;35622;52.008;5.426;2024-02-21T09:13:09;17.42;;;9.18;;
49730;SDS011;35622;52.008;5.426;2024-02-21T09:15:35;17.70;;;9.13;;
49730;SDS011;35622;52.008;5.426;2024-02-21T09:18:00;15.23;;;8.60;;
49730;SDS011;35622;52.008;5.426;2024-02-21T09:20:26;14.52;;;8.43;;
49730;SDS011;35622;52.008;5.426;2024-02-21T09:22:51;14.73;;;8.20;;
49730;SDS011;35622;52.008;5.426;2024-02-21T09:25:18;15.98;;;8.20;;
49730;SDS011;35622;52.008;5.426;2024-02-21T09:27:44;14.90;;;8.38;;
49730;SDS011;35622;52.008;5.426;2024-02-21T09:30:10;16.52;;;8.60;;
49730;SDS011;35622;52.008;5.426;2024-02-21T09:32:36;14.60;;;7.50;;
49730;SDS011;35622;52.008;5.426;2024-02-21T09:35:02;14.35;;;8.48;;
49730;SDS011;35622;52.008;5.426;2024-02-21T09:37:28;15.43;;;7.72;;
49730;SDS011;35622;52.008;5.426;2024-02-21T09:39:53;13.90;;;7.80;;
49730;SDS011;35622;52.008;5.426;2024-02-21T09:42:20;13.98;;;8.35;;
49730;SDS011;35622;52.008;5.426;2024-02-21T09:44:47;15.68;;;7.65;;
49730;SDS011;35622;52.008;5.426;2024-02-21T09:47:17;13.50;;;8.63;;
49730;SDS011;35622;52.008;5.426;2024-02-21T09:49:47;11.85;;;7.35;;
49730;SDS011;35622;52.008;5.426;2024-02-21T09:52:13;13.73;;;7.28;;
49730;SDS011;35622;52.008;5.426;2024-02-21T09:54:40;12.02;;;7.22;;
49730;SDS011;35622;52.008;5.426;2024-02-21T09:57:09;14.65;;;7.35;;
49730;SDS011;35622;52.008;5.426;2024-02-21T09:59:35;14.23;;;7.43;;
49730;SDS011;35622;52.008;5.426;2024-02-21T10:02:00;14.90;;;6.88;;
49730;SDS011;35622;52.008;5.426;2024-02-21T10:04:26;12.75;;;7.57;;
49730;SDS011;35622;52.008;5.426;2024-02-21T10:06:53;13.35;;;7.13;;
49730;SDS011;35622;52.008;5.426;2024-02-21T10:09:23;15.10;;;7.20;;
49730;SDS011;35622;52.008;5.426;2024-02-21T10:11:52;10.05;;;6.80;;
49730;SDS011;35622;52.008;5.426;2024-02-21T10:14:18;10.95;;;6.45;;
49730;SDS011;35622;52.008;5.426;2024-02-21T10:16:48;8.85;;;6.32;;
49730;SDS011;35622;52.008;5.426;2024-02-21T10:19:18;11.38;;;6.53;;
49730;SDS011;35622;52.008;5.426;2024-02-21T10:21:44;10.00;;;5.70;;
49730;SDS011;35622;52.008;5.426;2024-02-21T10:24:28;9.30;;;5.80;;
49730;SDS011;35622;52.008;5.426;2024-02-21T10:27:04;10.10;;;5.95;;
49730;SDS011;35622;52.008;5.426;2024-02-21T10:29:33;8.98;;;5.75;;
49730;SDS011;35622;52.008;5.426;2024-02-21T10:32:08;11.55;;;5.95;;
49730;SDS011;35622;52.008;5.426;2024-02-21T10:34:39;8.98;;;5.80;;
49730;SDS011;35622;52.008;5.426;2024-02-21T10:37:06;10.30;;;5.22;;
49730;SDS011;35622;52.008;5.426;2024-02-21T10:39:35;8.93;;;5.80;;
49730;SDS011;35622;52.008;5.426;2024-02-21T10:42:03;9.43;;;5.45;;
49730;SDS011;35622;52.008;5.426;2024-02-21T10:44:29;7.55;;;5.38;;
49730;SDS011;35622;52.008;5.426;2024-02-21T10:46:59;8.43;;;5.40;;
49730;SDS011;35622;52.008;5.426;2024-02-21T10:49:29;8.15;;;5.55;;
49730;SDS011;35622;52.008;5.426;2024-02-21T10:52:17;8.88;;;5.63;;
49730;SDS011;35622;52.008;5.426;2024-02-21T10:54:56;9.95;;;5.97;;
49730;SDS011;35622;52.008;5.426;2024-02-21T10:57:32;8.93;;;5.70;;
49730;SDS011;35622;52.008;5.426;2024-02-21T11:00:01;10.07;;;6.20;;
49730;SDS011;35622;52.008;5.426;2024-02-21T11:02:28;7.82;;;5.63;;
49730;SDS011;35622;52.008;5.426;2024-02-21T11:04:56;10.30;;;5.85;;
49730;SDS011;35622;52.008;5.426;2024-02-21T11:07:22;9.23;;;6.07;;
49730;SDS011;35622;52.008;5.426;2024-02-21T11:09:52;8.15;;;6.28;;
49730;SDS011;35622;52.008;5.426;2024-02-21T11:15:09;9.60;;;6.75;;
49730;SDS011;35622;52.008;5.426;2024-02-21T11:17:36;9.23;;;6.55;;
49730;SDS011;35622;52.008;5.426;2024-02-21T11:20:15;9.27;;;6.95;;
49730;SDS011;35622;52.008;5.426;2024-02-21T11:22:43;11.27;;;7.50;;
49730;SDS011;35622;52.008;5.426;2024-02-21T11:25:09;10.38;;;7.22;;
49730;SDS011;35622;52.008;5.426;2024-02-21T11:27:37;12.50;;;7.43;;
49730;SDS011;35622;52.008;5.426;2024-02-21T11:30:04;11.68;;;7.85;;
49730;SDS011;35622;52.008;5.426;2024-02-21T11:32:30;12.52;;;8.27;;
49730;SDS011;35622;52.008;5.426;2024-02-21T11:35:00;12.93;;;7.78;;
49730;SDS011;35622;52.008;5.426;2024-02-21T11:37:27;13.88;;;7.70;;
49730;SDS011;35622;52.008;5.426;2024-02-21T11:39:57;12.75;;;7.75;;
49730;SDS011;35622;52.008;5.426;2024-02-21T11:42:24;12.68;;;7.85;;
49730;SDS011;35622;52.008;5.426;2024-02-21T11:44:51;13.23;;;8.38;;
49730;SDS011;35622;52.008;5.426;2024-02-21T11:47:17;15.02;;;8.95;;
49730;SDS011;35622;52.008;5.426;2024-02-21T11:49:45;13.32;;;7.85;;
49730;SDS011;35622;52.008;5.426;2024-02-21T11:52:12;13.75;;;7.97;;
49730;SDS011;35622;52.008;5.426;2024-02-21T11:54:40;14.15;;;7.85;;
49730;SDS011;35622;52.008;5.426;2024-02-21T11:57:06;12.68;;;7.90;;
49730;SDS011;35622;52.008;5.426;2024-02-21T11:59:32;13.38;;;7.97;;
49730;SDS011;35622;52.008;5.426;2024-02-21T12:02:02;13.05;;;7.72;;
49730;SDS011;35622;52.008;5.426;2024-02-21T12:04:28;12.80;;;7.18;;
49730;SDS011;35622;52.008;5.426;2024-02-21T12:06:56;10.27;;;7.32;;
49730;SDS011;35622;52.008;5.426;2024-02-21T12:09:23;10.68;;;6.60;;
49730;SDS011;35622;52.008;5.426;2024-02-21T12:11:59;11.70;;;7.45;;
49730;SDS011;35622;52.008;5.426;2024-02-21T12:14:28;10.05;;;6.50;;
49730;SDS011;35622;52.008;5.426;2024-02-21T12:16:55;11.18;;;6.68;;
49730;SDS011;35622;52.008;5.426;2024-02-21T12:19:20;13.63;;;6.68;;
49730;SDS011;35622;52.008;5.426;2024-02-21T12:21:47;9.10;;;5.93;;
49730;SDS011;35622;52.008;5.426;2024-02-21T12:24:15;10.55;;;6.20;;
49730;SDS011;35622;52.008;5.426;2024-02-21T12:26:51;9.13;;;6.40;;
49730;SDS011;35622;52.008;5.426;2024-02-21T12:29:18;8.52;;;6.10;;
49730;SDS011;35622;52.008;5.426;2024-02-21T12:31:47;12.80;;;6.30;;
49730;SDS011;35622;52.008;5.426;2024-02-21T12:34:14;10.63;;;6.38;;
49730;SDS011;35622;52.008;5.426;2024-02-21T12:36:41;10.18;;;6.18;;
49730;SDS011;35622;52.008;5.426;2024-02-21T12:39:08;9.70;;;6.00;;
49730;SDS011;35622;52.008;5.426;2024-02-21T12:41:34;7.82;;;5.50;;
49730;SDS011;35622;52.008;5.426;2024-02-21T12:44:03;9.20;;;5.57;;
49730;SDS011;35622;52.008;5.426;2024-02-21T12:46:32;10.52;;;5.60;;
49730;SDS011;35622;52.008;5.426;2024-02-21T12:48:58;12.32;;;6.20;;
49730;SDS011;35622;52.008;5.426;2024-02-21T12:51:24;10.48;;;6.07;;
49730;SDS011;35622;52.008;5.426;2024-02-21T12:53:50;9.32;;;5.78;;
49730;SDS011;35622;52.008;5.426;2024-02-21T12:56:16;10.13;;;5.43;;
49730;SDS011;35622;52.008;5.426;2024-02-21T12:58:41;6.20;;;4.95;;
49730;SDS011;35622;52.008;5.426;2024-02-21T13:01:07;7.72;;;5.10;;
49730;SDS011;35622;52.008;5.426;2024-02-21T13:03:33;9.30;;;5.00;;
49730;SDS011;35622;52.008;5.426;2024-02-21T13:05:58;10.77;;;5.03;;
49730;SDS011;35622;52.008;5.426;2024-02-21T13:08:24;7.63;;;5.00;;
49730;SDS011;35622;52.008;5.426;2024-02-21T13:10:50;10.27;;;5.32;;
49730;SDS011;35622;52.008;5.426;2024-02-21T13:13:16;7.10;;;5.18;;
49730;SDS011;35622;52.008;5.426;2024-02-21T13:15:41;11.35;;;4.95;;
49730;SDS011;35622;52.008;5.426;2024-02-21T13:18:08;8.65;;;4.80;;
49730;SDS011;35622;52.008;5.426;2024-02-21T13:20:34;9.15;;;4.45;;
49730;SDS011;35622;52.008;5.426;2024-02-21T13:23:00;6.88;;;4.43;;
49730;SDS011;35622;52.008;5.426;2024-02-21T13:25:26;7.47;;;4.70;;
49730;SDS011;35622;52.008;5.426;2024-02-21T13:27:52;6.35;;;4.28;;
49730;SDS011;35622;52.008;5.426;2024-02-21T13:30:17;10.27;;;4.63;;
49730;SDS011;35622;52.008;5.426;2024-02-21T13:32:43;7.70;;;4.50;;
49730;SDS011;35622;52.008;5.426;2024-02-21T13:35:11;10.63;;;4.97;;
49730;SDS011;35622;52.008;5.426;2024-02-21T13:37:37;6.68;;;5.03;;
49730;SDS011;35622;52.008;5.426;2024-02-21T13:40:04;7.15;;;4.72;;
49730;SDS011;35622;52.008;5.426;2024-02-21T13:42:30;10.32;;;4.45;;
49730;SDS011;35622;52.008;5.426;2024-02-21T13:44:56;7.13;;;4.20;;
49730;SDS011;35622;52.008;5.426;2024-02-21T13:47:21;8.38;;;4.22;;
49730;SDS011;35622;52.008;5.426;2024-02-21T13:49:47;10.20;;;4.03;;
49730;SDS011;35622;52.008;5.426;2024-02-21T13:52:13;9.05;;;4.15;;
49730;SDS011;35622;52.008;5.426;2024-02-21T13:54:39;9.05;;;4.05;;
49730;SDS011;35622;52.008;5.426;2024-02-21T13:57:05;8.70;;;4.35;;
49730;SDS011;35622;52.008;5.426;2024-02-21T13:59:31;9.00;;;4.60;;
49730;SDS011;35622;52.008;5.426;2024-02-21T14:01:58;7.65;;;4.25;;
49730;SDS011;35622;52.008;5.426;2024-02-21T14:04:24;7.40;;;4.30;;
49730;SDS011;35622;52.008;5.426;2024-02-21T14:06:50;9.40;;;4.85;;
49730;SDS011;35622;52.008;5.426;2024-02-21T14:09:15;6.25;;;3.95;;
49730;SDS011;35622;52.008;5.426;2024-02-21T14:11:41;10.80;;;4.53;;
49730;SDS011;35622;52.008;5.426;2024-02-21T14:14:07;7.75;;;4.10;;
49730;SDS011;35622;52.008;5.426;2024-02-21T14:16:33;9.10;;;4.15;;
49730;SDS011;35622;52.008;5.426;2024-02-21T14:18:58;8.02;;;4.00;;
49730;SDS011;35622;52.008;5.426;2024-02-21T14:21:24;9.25;;;3.63;;
49730;SDS011;35622;52.008;5.426;2024-02-21T14:23:50;9.68;;;3.60;;
49730;SDS011;35622;52.008;5.426;2024-02-21T14:26:17;6.78;;;3.30;;
49730;SDS011;35622;52.008;5.426;2024-02-21T14:28:43;6.50;;;3.47;;
49730;SDS011;35622;52.008;5.426;2024-02-21T14:31:09;6.40;;;3.33;;
49730;SDS011;35622;52.008;5.426;2024-02-21T14:33:35;8.55;;;3.42;;
49730;SDS011;35622;52.008;5.426;2024-02-21T14:36:01;7.68;;;3.20;;